Shady Side, Maryland
Current Conditions -  °F | °C
As of 7:54 PM on Wednesday 22 Oct 2014 (Local Time) from KNAK Reporting Station
Light Rain Light Rain  
Wind Chill: 55°   Ceiling: 4400
Heat Index: 55°   Visibility: 10mi
Dew Point: 49°   Wind: 17mph
Humidity: 80%   Direction: 330°NNW
Pressure: 29.91"   Gusts: NA
Location:  38.84°N, 76.51°W
Report Text: KNAK 222354Z AUTO 33015KT 10SM -RA BKN044 BKN055 OVC070 13/09 A2991 RMK AO2 SLP129 P0004 60012 T01280094 10133 20128 52006
Loading
Personal Weather Stations






























Interactive Weather Map
Tropical Storm Tracking
New forecast layout! Learn more

10-Day Weather Forecast

Advertisements
Track Severe Weather on mobile